sensor_id;sensor_type;location;lat;lon;timestamp;temperature;humidity
11744;DHT22;5929;51.906;7.674;2024-01-15T00:00:54;1.70;99.90
11744;DHT22;5929;51.906;7.674;2024-01-15T00:03:21;1.70;99.90
11744;DHT22;5929;51.906;7.674;2024-01-15T00:05:47;1.60;99.90
11744;DHT22;5929;51.906;7.674;2024-01-15T00:08:14;1.70;99.90
11744;DHT22;5929;51.906;7.674;2024-01-15T00:10:41;1.60;99.90
11744;DHT22;5929;51.906;7.674;2024-01-15T00:13:08;1.60;99.90
11744;DHT22;5929;51.906;7.674;2024-01-15T00:15:36;1.60;99.90
11744;DHT22;5929;51.906;7.674;2024-01-15T00:18:03;1.60;99.90
11744;DHT22;5929;51.906;7.674;2024-01-15T00:20:30;1.50;99.90
11744;DHT22;5929;51.906;7.674;2024-01-15T00:22:57;1.50;99.90
11744;DHT22;5929;51.906;7.674;2024-01-15T00:25:24;1.50;99.90
11744;DHT22;5929;51.906;7.674;2024-01-15T00:27:51;1.50;99.90
11744;DHT22;5929;51.906;7.674;2024-01-15T00:30:18;1.40;99.90
11744;DHT22;5929;51.906;7.674;2024-01-15T00:32:46;1.40;99.90
11744;DHT22;5929;51.906;7.674;2024-01-15T00:35:13;1.40;99.90
11744;DHT22;5929;51.906;7.674;2024-01-15T00:37:39;1.30;99.90
11744;DHT22;5929;51.906;7.674;2024-01-15T00:40:07;1.30;99.90
11744;DHT22;5929;51.906;7.674;2024-01-15T00:42:34;1.30;99.90
11744;DHT22;5929;51.906;7.674;2024-01-15T00:45:04;1.30;99.90
11744;DHT22;5929;51.906;7.674;2024-01-15T00:47:33;1.30;99.90
11744;DHT22;5929;51.906;7.674;2024-01-15T00:50:01;1.40;99.90
11744;DHT22;5929;51.906;7.674;2024-01-15T00:52:28;1.40;99.90
11744;DHT22;5929;51.906;7.674;2024-01-15T00:54:55;1.40;99.90
11744;DHT22;5929;51.906;7.674;2024-01-15T00:57:22;1.40;99.90
11744;DHT22;5929;51.906;7.674;2024-01-15T00:59:51;1.40;99.90
11744;DHT22;5929;51.906;7.674;2024-01-15T01:02:18;1.50;99.90
11744;DHT22;5929;51.906;7.674;2024-01-15T01:04:45;1.50;99.90
11744;DHT22;5929;51.906;7.674;2024-01-15T01:07:13;1.50;99.90
11744;DHT22;5929;51.906;7.674;2024-01-15T01:09:40;1.50;99.90
11744;DHT22;5929;51.906;7.674;2024-01-15T01:12:09;1.50;99.90
11744;DHT22;5929;51.906;7.674;2024-01-15T01:14:36;1.50;99.90
11744;DHT22;5929;51.906;7.674;2024-01-15T01:17:03;1.50;99.90
11744;DHT22;5929;51.906;7.674;2024-01-15T01:19:30;1.50;99.90
11744;DHT22;5929;51.906;7.674;2024-01-15T01:21:59;1.50;99.90
11744;DHT22;5929;51.906;7.674;2024-01-15T01:24:27;1.50;99.90
11744;DHT22;5929;51.906;7.674;2024-01-15T01:26:54;1.50;99.90
11744;DHT22;5929;51.906;7.674;2024-01-15T01:29:21;1.60;99.90
11744;DHT22;5929;51.906;7.674;2024-01-15T01:31:48;1.60;99.90
11744;DHT22;5929;51.906;7.674;2024-01-15T01:34:16;1.50;99.90
11744;DHT22;5929;51.906;7.674;2024-01-15T01:36:43;1.50;99.90
11744;DHT22;5929;51.906;7.674;2024-01-15T01:39:10;1.50;99.90
11744;DHT22;5929;51.906;7.674;2024-01-15T01:41:38;1.50;99.90
11744;DHT22;5929;51.906;7.674;2024-01-15T01:44:05;1.50;99.90
11744;DHT22;5929;51.906;7.674;2024-01-15T01:46:32;1.50;99.90
11744;DHT22;5929;51.906;7.674;2024-01-15T01:49:00;1.40;99.90
11744;DHT22;5929;51.906;7.674;2024-01-15T01:51:31;1.40;99.90
11744;DHT22;5929;51.906;7.674;2024-01-15T01:54:00;1.40;99.90
11744;DHT22;5929;51.906;7.674;2024-01-15T01:56:27;1.40;99.90
11744;DHT22;5929;51.906;7.674;2024-01-15T01:58:56;1.40;99.90
11744;DHT22;5929;51.906;7.674;2024-01-15T02:01:23;1.50;99.90
11744;DHT22;5929;51.906;7.674;2024-01-15T02:03:50;1.50;99.90
11744;DHT22;5929;51.906;7.674;2024-01-15T02:06:17;1.40;99.90
11744;DHT22;5929;51.906;7.674;2024-01-15T02:08:44;1.40;99.90
11744;DHT22;5929;51.906;7.674;2024-01-15T02:11:13;1.40;99.90
11744;DHT22;5929;51.906;7.674;2024-01-15T02:13:40;1.40;99.90
11744;DHT22;5929;51.906;7.674;2024-01-15T02:16:08;1.40;99.90
11744;DHT22;5929;51.906;7.674;2024-01-15T02:18:41;1.40;99.90
11744;DHT22;5929;51.906;7.674;2024-01-15T02:21:08;1.40;99.90
11744;DHT22;5929;51.906;7.674;2024-01-15T02:23:37;1.50;99.90
11744;DHT22;5929;51.906;7.674;2024-01-15T02:26:05;1.50;99.90
11744;DHT22;5929;51.906;7.674;2024-01-15T02:28:34;1.40;99.90
11744;DHT22;5929;51.906;7.674;2024-01-15T02:31:01;1.40;99.90
11744;DHT22;5929;51.906;7.674;2024-01-15T02:33:28;1.40;99.90
11744;DHT22;5929;51.906;7.674;2024-01-15T02:35:55;1.40;99.90
11744;DHT22;5929;51.906;7.674;2024-01-15T02:38:22;1.40;99.90
11744;DHT22;5929;51.906;7.674;2024-01-15T02:40:50;1.40;99.90
11744;DHT22;5929;51.906;7.674;2024-01-15T02:43:17;1.50;99.90
11744;DHT22;5929;51.906;7.674;2024-01-15T02:45:44;1.50;99.90
11744;DHT22;5929;51.906;7.674;2024-01-15T02:48:11;1.40;99.90
11744;DHT22;5929;51.906;7.674;2024-01-15T02:50:38;1.40;99.90
11744;DHT22;5929;51.906;7.674;2024-01-15T02:53:05;1.50;99.90
11744;DHT22;5929;51.906;7.674;2024-01-15T02:55:32;1.50;99.90
11744;DHT22;5929;51.906;7.674;2024-01-15T02:58:00;1.50;99.90
11744;DHT22;5929;51.906;7.674;2024-01-15T03:00:27;1.60;99.90
11744;DHT22;5929;51.906;7.674;2024-01-15T03:02:54;1.60;99.90
11744;DHT22;5929;51.906;7.674;2024-01-15T03:05:21;1.60;99.90
11744;DHT22;5929;51.906;7.674;2024-01-15T03:07:48;1.70;99.90
11744;DHT22;5929;51.906;7.674;2024-01-15T03:10:15;1.60;99.90
11744;DHT22;5929;51.906;7.674;2024-01-15T03:12:42;1.60;99.90
11744;DHT22;5929;51.906;7.674;2024-01-15T03:15:11;1.60;99.90
11744;DHT22;5929;51.906;7.674;2024-01-15T03:17:38;1.50;99.90
11744;DHT22;5929;51.906;7.674;2024-01-15T03:20:05;1.50;99.90
11744;DHT22;5929;51.906;7.674;2024-01-15T03:22:33;1.50;99.90
11744;DHT22;5929;51.906;7.674;2024-01-15T03:24:59;1.50;99.90
11744;DHT22;5929;51.906;7.674;2024-01-15T03:27:26;1.40;99.90
11744;DHT22;5929;51.906;7.674;2024-01-15T03:29:53;1.40;99.90
11744;DHT22;5929;51.906;7.674;2024-01-15T03:32:21;1.50;99.90
11744;DHT22;5929;51.906;7.674;2024-01-15T03:34:48;1.40;99.90
11744;DHT22;5929;51.906;7.674;2024-01-15T03:37:15;1.50;99.90
11744;DHT22;5929;51.906;7.674;2024-01-15T03:39:41;1.50;99.90
11744;DHT22;5929;51.906;7.674;2024-01-15T03:42:08;1.50;99.90
11744;DHT22;5929;51.906;7.674;2024-01-15T03:44:35;1.40;99.90
11744;DHT22;5929;51.906;7.674;2024-01-15T03:47:02;1.50;99.90
11744;DHT22;5929;51.906;7.674;2024-01-15T03:49:31;1.50;99.90
11744;DHT22;5929;51.906;7.674;2024-01-15T03:51:57;1.50;99.90
11744;DHT22;5929;51.906;7.674;2024-01-15T03:54:24;1.60;99.90
11744;DHT22;5929;51.906;7.674;2024-01-15T03:56:52;1.60;99.90
11744;DHT22;5929;51.906;7.674;2024-01-15T03:59:19;1.70;99.90
11744;DHT22;5929;51.906;7.674;2024-01-15T04:01:48;1.70;99.90
11744;DHT22;5929;51.906;7.674;2024-01-15T04:04:17;1.70;99.90
11744;DHT22;5929;51.906;7.674;2024-01-15T04:06:45;1.70;99.90
11744;DHT22;5929;51.906;7.674;2024-01-15T04:09:12;1.60;99.90
11744;DHT22;5929;51.906;7.674;2024-01-15T04:11:40;1.60;99.90
11744;DHT22;5929;51.906;7.674;2024-01-15T04:14:09;1.60;99.90
11744;DHT22;5929;51.906;7.674;2024-01-15T04:16:37;1.50;99.90
11744;DHT22;5929;51.906;7.674;2024-01-15T04:19:04;1.60;99.90
11744;DHT22;5929;51.906;7.674;2024-01-15T04:21:30;1.50;99.90
11744;DHT22;5929;51.906;7.674;2024-01-15T04:23:59;1.60;99.90
11744;DHT22;5929;51.906;7.674;2024-01-15T04:26:26;1.60;99.90
11744;DHT22;5929;51.906;7.674;2024-01-15T04:28:52;1.60;99.90
11744;DHT22;5929;51.906;7.674;2024-01-15T04:31:23;1.60;99.90
11744;DHT22;5929;51.906;7.674;2024-01-15T04:33:50;1.60;99.90
11744;DHT22;5929;51.906;7.674;2024-01-15T04:36:17;1.50;99.90
11744;DHT22;5929;51.906;7.674;2024-01-15T04:38:44;1.60;99.90
11744;DHT22;5929;51.906;7.674;2024-01-15T04:41:13;1.60;99.90
11744;DHT22;5929;51.906;7.674;2024-01-15T04:43:40;1.60;99.90
11744;DHT22;5929;51.906;7.674;2024-01-15T04:46:08;1.70;99.90
11744;DHT22;5929;51.906;7.674;2024-01-15T04:48:35;1.70;99.90
11744;DHT22;5929;51.906;7.674;2024-01-15T04:51:04;1.70;99.90
11744;DHT22;5929;51.906;7.674;2024-01-15T04:53:31;1.60;99.90
11744;DHT22;5929;51.906;7.674;2024-01-15T04:55:58;1.50;99.90
11744;DHT22;5929;51.906;7.674;2024-01-15T04:58:26;1.50;99.90
11744;DHT22;5929;51.906;7.674;2024-01-15T05:00:53;1.40;99.90
11744;DHT22;5929;51.906;7.674;2024-01-15T05:03:20;1.30;99.90
11744;DHT22;5929;51.906;7.674;2024-01-15T05:05:47;1.40;99.90
11744;DHT22;5929;51.906;7.674;2024-01-15T05:08:14;1.30;99.90
11744;DHT22;5929;51.906;7.674;2024-01-15T05:10:41;1.30;99.90
11744;DHT22;5929;51.906;7.674;2024-01-15T05:13:07;1.30;99.90
11744;DHT22;5929;51.906;7.674;2024-01-15T05:15:36;1.30;99.90
11744;DHT22;5929;51.906;7.674;2024-01-15T05:18:05;1.40;99.90
11744;DHT22;5929;51.906;7.674;2024-01-15T05:20:31;1.30;99.90
11744;DHT22;5929;51.906;7.674;2024-01-15T05:22:58;1.40;99.90
11744;DHT22;5929;51.906;7.674;2024-01-15T05:25:25;1.40;99.90
11744;DHT22;5929;51.906;7.674;2024-01-15T05:27:52;1.40;99.90
11744;DHT22;5929;51.906;7.674;2024-01-15T05:30:19;1.40;99.90
11744;DHT22;5929;51.906;7.674;2024-01-15T05:32:47;1.50;99.90
11744;DHT22;5929;51.906;7.674;2024-01-15T05:35:14;1.50;99.90
11744;DHT22;5929;51.906;7.674;2024-01-15T05:37:43;1.50;99.90
11744;DHT22;5929;51.906;7.674;2024-01-15T05:40:11;1.50;99.90
11744;DHT22;5929;51.906;7.674;2024-01-15T05:42:39;1.50;99.90
11744;DHT22;5929;51.906;7.674;2024-01-15T05:45:06;1.50;99.90
11744;DHT22;5929;51.906;7.674;2024-01-15T05:47:33;1.50;99.90
11744;DHT22;5929;51.906;7.674;2024-01-15T05:50:02;1.50;99.90
11744;DHT22;5929;51.906;7.674;2024-01-15T05:52:29;1.50;99.90
11744;DHT22;5929;51.906;7.674;2024-01-15T05:54:56;1.50;99.90
11744;DHT22;5929;51.906;7.674;2024-01-15T05:57:23;1.40;99.90
11744;DHT22;5929;51.906;7.674;2024-01-15T05:59:49;1.40;99.90
11744;DHT22;5929;51.906;7.674;2024-01-15T06:02:16;1.50;99.90
11744;DHT22;5929;51.906;7.674;2024-01-15T06:04:43;1.40;99.90
11744;DHT22;5929;51.906;7.674;2024-01-15T06:07:11;1.40;99.90
11744;DHT22;5929;51.906;7.674;2024-01-15T06:09:38;1.50;99.90
11744;DHT22;5929;51.906;7.674;2024-01-15T06:12:08;1.40;99.90
11744;DHT22;5929;51.906;7.674;2024-01-15T06:14:35;1.40;99.90
11744;DHT22;5929;51.906;7.674;2024-01-15T06:17:01;1.40;99.90
11744;DHT22;5929;51.906;7.674;2024-01-15T06:19:28;1.40;99.90
11744;DHT22;5929;51.906;7.674;2024-01-15T06:21:55;1.40;99.90
11744;DHT22;5929;51.906;7.674;2024-01-15T06:24:23;1.40;99.90
11744;DHT22;5929;51.906;7.674;2024-01-15T06:26:50;1.40;99.90
11744;DHT22;5929;51.906;7.674;2024-01-15T06:29:17;1.40;99.90
11744;DHT22;5929;51.906;7.674;2024-01-15T06:31:44;1.50;99.90
11744;DHT22;5929;51.906;7.674;2024-01-15T06:34:11;1.40;99.90
11744;DHT22;5929;51.906;7.674;2024-01-15T06:36:37;1.40;99.90
11744;DHT22;5929;51.906;7.674;2024-01-15T06:39:04;1.40;99.90
11744;DHT22;5929;51.906;7.674;2024-01-15T06:41:32;1.40;99.90
11744;DHT22;5929;51.906;7.674;2024-01-15T06:43:59;1.50;99.90
11744;DHT22;5929;51.906;7.674;2024-01-15T06:46:26;1.50;99.90
11744;DHT22;5929;51.906;7.674;2024-01-15T06:48:53;1.50;99.90
11744;DHT22;5929;51.906;7.674;2024-01-15T06:51:22;1.50;99.90
11744;DHT22;5929;51.906;7.674;2024-01-15T06:53:49;1.50;99.90
11744;DHT22;5929;51.906;7.674;2024-01-15T06:56:16;1.50;99.90
11744;DHT22;5929;51.906;7.674;2024-01-15T06:58:44;1.50;99.90
11744;DHT22;5929;51.906;7.674;2024-01-15T07:01:11;1.50;99.90
11744;DHT22;5929;51.906;7.674;2024-01-15T07:03:38;1.50;99.90
11744;DHT22;5929;51.906;7.674;2024-01-15T07:06:05;1.40;99.90
11744;DHT22;5929;51.906;7.674;2024-01-15T07:08:32;1.30;99.90
11744;DHT22;5929;51.906;7.674;2024-01-15T07:10:59;1.20;99.90
11744;DHT22;5929;51.906;7.674;2024-01-15T07:13:25;1.20;99.90
11744;DHT22;5929;51.906;7.674;2024-01-15T07:15:54;1.10;99.90
11744;DHT22;5929;51.906;7.674;2024-01-15T07:18:20;1.10;99.90
11744;DHT22;5929;51.906;7.674;2024-01-15T07:20:47;1.00;99.90
11744;DHT22;5929;51.906;7.674;2024-01-15T07:23:14;1.00;99.90
11744;DHT22;5929;51.906;7.674;2024-01-15T07:25:41;0.90;99.90
11744;DHT22;5929;51.906;7.674;2024-01-15T07:28:08;1.00;99.90
11744;DHT22;5929;51.906;7.674;2024-01-15T07:30:35;0.90;99.90
11744;DHT22;5929;51.906;7.674;2024-01-15T07:33:05;0.90;99.90
11744;DHT22;5929;51.906;7.674;2024-01-15T07:35:34;0.90;99.90
11744;DHT22;5929;51.906;7.674;2024-01-15T07:38:01;1.00;99.90
11744;DHT22;5929;51.906;7.674;2024-01-15T07:40:28;1.00;99.90
11744;DHT22;5929;51.906;7.674;2024-01-15T07:42:55;0.90;99.90
11744;DHT22;5929;51.906;7.674;2024-01-15T07:45:22;1.00;99.90
11744;DHT22;5929;51.906;7.674;2024-01-15T07:47:48;1.00;99.90
11744;DHT22;5929;51.906;7.674;2024-01-15T07:50:17;1.00;99.90
11744;DHT22;5929;51.906;7.674;2024-01-15T07:52:45;1.00;99.90
11744;DHT22;5929;51.906;7.674;2024-01-15T07:55:12;1.00;99.90
11744;DHT22;5929;51.906;7.674;2024-01-15T07:57:39;1.10;99.90
11744;DHT22;5929;51.906;7.674;2024-01-15T08:00:06;1.10;99.90
11744;DHT22;5929;51.906;7.674;2024-01-15T08:02:34;1.10;99.90
11744;DHT22;5929;51.906;7.674;2024-01-15T08:05:04;1.10;99.90
11744;DHT22;5929;51.906;7.674;2024-01-15T08:07:32;1.10;99.90
11744;DHT22;5929;51.906;7.674;2024-01-15T08:09:59;1.10;99.90
11744;DHT22;5929;51.906;7.674;2024-01-15T08:12:26;1.10;99.90
11744;DHT22;5929;51.906;7.674;2024-01-15T08:14:53;1.10;99.90
11744;DHT22;5929;51.906;7.674;2024-01-15T08:17:19;1.10;99.90
11744;DHT22;5929;51.906;7.674;2024-01-15T08:19:46;1.10;99.90
11744;DHT22;5929;51.906;7.674;2024-01-15T08:22:13;1.10;99.90
11744;DHT22;5929;51.906;7.674;2024-01-15T08:24:41;1.20;99.90
11744;DHT22;5929;51.906;7.674;2024-01-15T08:27:10;1.20;99.90
11744;DHT22;5929;51.906;7.674;2024-01-15T08:29:37;1.20;99.90
11744;DHT22;5929;51.906;7.674;2024-01-15T08:32:04;1.20;99.90
11744;DHT22;5929;51.906;7.674;2024-01-15T08:34:31;1.20;99.90
11744;DHT22;5929;51.906;7.674;2024-01-15T08:36:58;1.20;99.90
11744;DHT22;5929;51.906;7.674;2024-01-15T08:39:25;1.20;99.90
11744;DHT22;5929;51.906;7.674;2024-01-15T08:41:53;1.20;99.90
11744;DHT22;5929;51.906;7.674;2024-01-15T08:44:20;1.30;99.90
11744;DHT22;5929;51.906;7.674;2024-01-15T08:46:47;1.30;99.90
11744;DHT22;5929;51.906;7.674;2024-01-15T08:49:14;1.30;99.90
11744;DHT22;5929;51.906;7.674;2024-01-15T08:51:40;1.30;99.90
11744;DHT22;5929;51.906;7.674;2024-01-15T08:54:07;1.30;99.90
11744;DHT22;5929;51.906;7.674;2024-01-15T08:56:34;1.30;99.90
11744;DHT22;5929;51.906;7.674;2024-01-15T08:59:02;1.30;99.90
11744;DHT22;5929;51.906;7.674;2024-01-15T09:01:29;1.30;99.90
11744;DHT22;5929;51.906;7.674;2024-01-15T09:03:56;1.30;99.90
11744;DHT22;5929;51.906;7.674;2024-01-15T09:06:23;1.40;99.90
11744;DHT22;5929;51.906;7.674;2024-01-15T09:08:50;1.40;99.90
11744;DHT22;5929;51.906;7.674;2024-01-15T09:11:17;1.40;99.90
11744;DHT22;5929;51.906;7.674;2024-01-15T09:13:44;1.40;99.90
11744;DHT22;5929;51.906;7.674;2024-01-15T09:16:12;1.50;99.90
11744;DHT22;5929;51.906;7.674;2024-01-15T09:18:39;1.40;99.90
11744;DHT22;5929;51.906;7.674;2024-01-15T09:21:06;1.50;99.90
11744;DHT22;5929;51.906;7.674;2024-01-15T09:23:33;1.50;99.90
11744;DHT22;5929;51.906;7.674;2024-01-15T09:26:00;1.50;99.90
11744;DHT22;5929;51.906;7.674;2024-01-15T09:28:28;1.50;99.90
11744;DHT22;5929;51.906;7.674;2024-01-15T09:30:54;1.50;99.90
11744;DHT22;5929;51.906;7.674;2024-01-15T09:33:23;1.50;99.90
11744;DHT22;5929;51.906;7.674;2024-01-15T09:35:50;1.50;99.90
11744;DHT22;5929;51.906;7.674;2024-01-15T09:38:16;1.60;99.90
11744;DHT22;5929;51.906;7.674;2024-01-15T09:40:45;1.60;99.90
11744;DHT22;5929;51.906;7.674;2024-01-15T09:43:13;1.60;99.90
11744;DHT22;5929;51.906;7.674;2024-01-15T09:45:41;1.60;99.90
11744;DHT22;5929;51.906;7.674;2024-01-15T09:48:09;1.50;99.90
11744;DHT22;5929;51.906;7.674;2024-01-15T09:50:37;1.60;99.90
11744;DHT22;5929;51.906;7.674;2024-01-15T09:53:05;1.60;99.90
11744;DHT22;5929;51.906;7.674;2024-01-15T09:55:35;1.60;99.90
11744;DHT22;5929;51.906;7.674;2024-01-15T09:58:03;1.70;99.90
11744;DHT22;5929;51.906;7.674;2024-01-15T10:00:30;1.60;99.90
11744;DHT22;5929;51.906;7.674;2024-01-15T10:02:57;1.60;99.90
11744;DHT22;5929;51.906;7.674;2024-01-15T10:05:25;1.70;99.90
11744;DHT22;5929;51.906;7.674;2024-01-15T10:07:54;1.70;99.90
11744;DHT22;5929;51.906;7.674;2024-01-15T10:10:23;1.70;99.90
11744;DHT22;5929;51.906;7.674;2024-01-15T10:12:49;1.70;99.90
11744;DHT22;5929;51.906;7.674;2024-01-15T10:15:16;1.70;99.90
11744;DHT22;5929;51.906;7.674;2024-01-15T10:17:43;1.70;99.90
11744;DHT22;5929;51.906;7.674;2024-01-15T10:20:11;1.70;99.90
11744;DHT22;5929;51.906;7.674;2024-01-15T10:22:40;1.80;99.90
11744;DHT22;5929;51.906;7.674;2024-01-15T10:25:11;1.90;99.90
11744;DHT22;5929;51.906;7.674;2024-01-15T10:27:39;2.00;99.90
11744;DHT22;5929;51.906;7.674;2024-01-15T10:30:09;2.00;99.90
11744;DHT22;5929;51.906;7.674;2024-01-15T10:32:37;1.90;99.90
11744;DHT22;5929;51.906;7.674;2024-01-15T10:35:04;2.00;99.90
11744;DHT22;5929;51.906;7.674;2024-01-15T10:37:34;2.00;99.90
11744;DHT22;5929;51.906;7.674;2024-01-15T10:40:02;2.00;99.90
11744;DHT22;5929;51.906;7.674;2024-01-15T10:42:32;2.10;99.90
11744;DHT22;5929;51.906;7.674;2024-01-15T10:44:58;2.20;99.90
11744;DHT22;5929;51.906;7.674;2024-01-15T10:47:25;2.20;99.90
11744;DHT22;5929;51.906;7.674;2024-01-15T10:49:53;2.30;99.90
11744;DHT22;5929;51.906;7.674;2024-01-15T10:52:20;2.30;99.90
11744;DHT22;5929;51.906;7.674;2024-01-15T10:54:48;2.30;99.90
11744;DHT22;5929;51.906;7.674;2024-01-15T10:57:16;2.30;99.90
11744;DHT22;5929;51.906;7.674;2024-01-15T10:59:45;2.20;99.90
11744;DHT22;5929;51.906;7.674;2024-01-15T11:02:12;2.20;99.90
11744;DHT22;5929;51.906;7.674;2024-01-15T11:04:40;2.10;99.90
11744;DHT22;5929;51.906;7.674;2024-01-15T11:07:07;2.10;99.90
11744;DHT22;5929;51.906;7.674;2024-01-15T11:09:36;2.20;99.90
11744;DHT22;5929;51.906;7.674;2024-01-15T11:12:09;2.50;99.90
11744;DHT22;5929;51.906;7.674;2024-01-15T11:14:39;2.80;99.90
11744;DHT22;5929;51.906;7.674;2024-01-15T11:17:08;2.80;99.90
11744;DHT22;5929;51.906;7.674;2024-01-15T11:19:42;2.80;99.90
11744;DHT22;5929;51.906;7.674;2024-01-15T11:22:10;3.20;99.90
11744;DHT22;5929;51.906;7.674;2024-01-15T11:24:57;3.20;99.90
11744;DHT22;5929;51.906;7.674;2024-01-15T11:27:40;3.10;99.90
11744;DHT22;5929;51.906;7.674;2024-01-15T11:30:08;2.90;99.90
11744;DHT22;5929;51.906;7.674;2024-01-15T11:32:37;2.80;99.90
11744;DHT22;5929;51.906;7.674;2024-01-15T11:35:07;2.60;99.90
11744;DHT22;5929;51.906;7.674;2024-01-15T11:37:58;2.60;99.90
11744;DHT22;5929;51.906;7.674;2024-01-15T11:40:38;2.50;99.90
11744;DHT22;5929;51.906;7.674;2024-01-15T11:43:06;2.50;99.90
11744;DHT22;5929;51.906;7.674;2024-01-15T11:45:35;2.40;99.90
11744;DHT22;5929;51.906;7.674;2024-01-15T11:48:13;2.50;99.90
11744;DHT22;5929;51.906;7.674;2024-01-15T11:50:41;2.70;99.90
11744;DHT22;5929;51.906;7.674;2024-01-15T11:53:16;2.80;99.90
11744;DHT22;5929;51.906;7.674;2024-01-15T11:55:45;2.90;99.90
11744;DHT22;5929;51.906;7.674;2024-01-15T11:58:14;2.90;99.90
11744;DHT22;5929;51.906;7.674;2024-01-15T12:00:43;3.10;99.90
11744;DHT22;5929;51.906;7.674;2024-01-15T12:03:11;3.30;99.90
11744;DHT22;5929;51.906;7.674;2024-01-15T12:05:39;3.40;99.90
11744;DHT22;5929;51.906;7.674;2024-01-15T12:08:07;3.40;99.90
11744;DHT22;5929;51.906;7.674;2024-01-15T12:10:36;3.30;99.90
11744;DHT22;5929;51.906;7.674;2024-01-15T12:13:05;3.20;99.90
11744;DHT22;5929;51.906;7.674;2024-01-15T12:15:32;3.10;99.90
11744;DHT22;5929;51.906;7.674;2024-01-15T12:18:00;3.00;99.90
11744;DHT22;5929;51.906;7.674;2024-01-15T12:20:28;2.90;99.90
11744;DHT22;5929;51.906;7.674;2024-01-15T12:22:57;2.90;99.90
11744;DHT22;5929;51.906;7.674;2024-01-15T12:25:25;2.90;99.90
11744;DHT22;5929;51.906;7.674;2024-01-15T12:27:53;2.90;99.90
11744;DHT22;5929;51.906;7.674;2024-01-15T12:30:20;2.80;99.90
11744;DHT22;5929;51.906;7.674;2024-01-15T12:32:48;2.80;99.90
11744;DHT22;5929;51.906;7.674;2024-01-15T12:35:15;2.80;99.90
11744;DHT22;5929;51.906;7.674;2024-01-15T12:37:43;2.70;99.90
11744;DHT22;5929;51.906;7.674;2024-01-15T12:40:13;2.70;99.90
11744;DHT22;5929;51.906;7.674;2024-01-15T12:42:45;2.70;99.90
11744;DHT22;5929;51.906;7.674;2024-01-15T12:45:12;2.60;99.90
11744;DHT22;5929;51.906;7.674;2024-01-15T12:47:40;2.60;99.90
11744;DHT22;5929;51.906;7.674;2024-01-15T12:50:07;2.50;99.90
11744;DHT22;5929;51.906;7.674;2024-01-15T12:52:34;2.40;99.90
11744;DHT22;5929;51.906;7.674;2024-01-15T12:55:04;2.40;99.90
11744;DHT22;5929;51.906;7.674;2024-01-15T12:57:32;2.40;99.90
11744;DHT22;5929;51.906;7.674;2024-01-15T12:59:59;2.30;99.90
11744;DHT22;5929;51.906;7.674;2024-01-15T13:02:27;2.30;99.90
11744;DHT22;5929;51.906;7.674;2024-01-15T13:04:54;2.30;99.90
11744;DHT22;5929;51.906;7.674;2024-01-15T13:07:22;2.40;99.90
11744;DHT22;5929;51.906;7.674;2024-01-15T13:09:48;2.50;99.90
11744;DHT22;5929;51.906;7.674;2024-01-15T13:12:19;2.60;99.90
11744;DHT22;5929;51.906;7.674;2024-01-15T13:14:47;2.70;99.90
11744;DHT22;5929;51.906;7.674;2024-01-15T13:17:14;2.70;99.90
11744;DHT22;5929;51.906;7.674;2024-01-15T13:19:41;2.70;99.90
11744;DHT22;5929;51.906;7.674;2024-01-15T13:22:08;2.60;99.90
11744;DHT22;5929;51.906;7.674;2024-01-15T13:24:35;2.50;99.90
11744;DHT22;5929;51.906;7.674;2024-01-15T13:27:02;2.40;99.90
11744;DHT22;5929;51.906;7.674;2024-01-15T13:29:30;2.20;99.90
11744;DHT22;5929;51.906;7.674;2024-01-15T13:31:58;2.20;99.90
11744;DHT22;5929;51.906;7.674;2024-01-15T13:34:25;2.30;99.90
11744;DHT22;5929;51.906;7.674;2024-01-15T13:36:52;2.40;99.90
11744;DHT22;5929;51.906;7.674;2024-01-15T13:39:20;2.40;99.90
11744;DHT22;5929;51.906;7.674;2024-01-15T13:41:47;2.40;99.90
11744;DHT22;5929;51.906;7.674;2024-01-15T13:44:16;2.40;99.90
11744;DHT22;5929;51.906;7.674;2024-01-15T13:46:43;2.30;99.90
11744;DHT22;5929;51.906;7.674;2024-01-15T13:49:13;2.30;99.90
11744;DHT22;5929;51.906;7.674;2024-01-15T13:51:40;2.20;99.90
11744;DHT22;5929;51.906;7.674;2024-01-15T13:54:07;2.20;99.90
11744;DHT22;5929;51.906;7.674;2024-01-15T13:56:34;2.20;99.90
11744;DHT22;5929;51.906;7.674;2024-01-15T13:59:01;2.20;99.90
11744;DHT22;5929;51.906;7.674;2024-01-15T14:01:29;2.30;99.90
11744;DHT22;5929;51.906;7.674;2024-01-15T14:03:56;2.30;99.90
11744;DHT22;5929;51.906;7.674;2024-01-15T14:06:25;2.30;99.90
11744;DHT22;5929;51.906;7.674;2024-01-15T14:08:52;2.30;99.90
11744;DHT22;5929;51.906;7.674;2024-01-15T14:11:19;2.20;99.90
11744;DHT22;5929;51.906;7.674;2024-01-15T14:13:46;2.30;99.90
11744;DHT22;5929;51.906;7.674;2024-01-15T14:16:13;2.30;99.90
11744;DHT22;5929;51.906;7.674;2024-01-15T14:18:40;2.30;99.90
11744;DHT22;5929;51.906;7.674;2024-01-15T14:21:07;2.30;99.90
11744;DHT22;5929;51.906;7.674;2024-01-15T14:23:35;2.40;99.90
11744;DHT22;5929;51.906;7.674;2024-01-15T14:26:02;2.40;99.90
11744;DHT22;5929;51.906;7.674;2024-01-15T14:28:29;2.40;99.90
11744;DHT22;5929;51.906;7.674;2024-01-15T14:30:56;2.40;99.90
11744;DHT22;5929;51.906;7.674;2024-01-15T14:33:24;2.30;99.90
11744;DHT22;5929;51.906;7.674;2024-01-15T14:35:51;2.20;99.90
11744;DHT22;5929;51.906;7.674;2024-01-15T14:38:18;2.00;99.90
11744;DHT22;5929;51.906;7.674;2024-01-15T14:40:46;1.90;99.90
11744;DHT22;5929;51.906;7.674;2024-01-15T14:43:13;1.80;99.90
11744;DHT22;5929;51.906;7.674;2024-01-15T14:45:40;1.60;99.90
11744;DHT22;5929;51.906;7.674;2024-01-15T14:48:09;1.50;99.90
11744;DHT22;5929;51.906;7.674;2024-01-15T14:50:36;1.40;99.90
11744;DHT22;5929;51.906;7.674;2024-01-15T14:53:03;1.40;99.90
11744;DHT22;5929;51.906;7.674;2024-01-15T14:55:29;1.40;99.90
11744;DHT22;5929;51.906;7.674;2024-01-15T14:57:59;1.30;99.90
11744;DHT22;5929;51.906;7.674;2024-01-15T15:00:26;1.40;99.90
11744;DHT22;5929;51.906;7.674;2024-01-15T15:02:53;1.40;99.90
11744;DHT22;5929;51.906;7.674;2024-01-15T15:05:19;1.50;99.90
11744;DHT22;5929;51.906;7.674;2024-01-15T15:07:46;1.60;99.90
11744;DHT22;5929;51.906;7.674;2024-01-15T15:10:13;1.70;99.90
11744;DHT22;5929;51.906;7.674;2024-01-15T15:12:40;1.70;99.90
11744;DHT22;5929;51.906;7.674;2024-01-15T15:15:08;1.70;99.90
11744;DHT22;5929;51.906;7.674;2024-01-15T15:17:36;1.70;99.90
11744;DHT22;5929;51.906;7.674;2024-01-15T15:20:04;1.70;99.90
11744;DHT22;5929;51.906;7.674;2024-01-15T15:22:31;1.60;99.90
11744;DHT22;5929;51.906;7.674;2024-01-15T15:24:58;1.60;99.90
11744;DHT22;5929;51.906;7.674;2024-01-15T15:27:25;1.60;99.90
11744;DHT22;5929;51.906;7.674;2024-01-15T15:29:53;1.60;99.90
11744;DHT22;5929;51.906;7.674;2024-01-15T15:32:21;1.50;99.90
11744;DHT22;5929;51.906;7.674;2024-01-15T15:34:48;1.50;99.90
11744;DHT22;5929;51.906;7.674;2024-01-15T15:37:14;1.40;99.90
11744;DHT22;5929;51.906;7.674;2024-01-15T15:39:42;1.50;99.90
11744;DHT22;5929;51.906;7.674;2024-01-15T15:42:09;1.40;99.90
11744;DHT22;5929;51.906;7.674;2024-01-15T15:44:36;1.40;99.90
11744;DHT22;5929;51.906;7.674;2024-01-15T15:47:03;1.40;99.90
11744;DHT22;5929;51.906;7.674;2024-01-15T15:49:32;1.30;99.90
11744;DHT22;5929;51.906;7.674;2024-01-15T15:51:58;1.30;99.90
11744;DHT22;5929;51.906;7.674;2024-01-15T15:54:28;1.30;99.90
11744;DHT22;5929;51.906;7.674;2024-01-15T15:56:55;1.20;99.90
11744;DHT22;5929;51.906;7.674;2024-01-15T15:59:22;1.20;99.90
11744;DHT22;5929;51.906;7.674;2024-01-15T16:01:49;1.20;99.90
11744;DHT22;5929;51.906;7.674;2024-01-15T16:04:16;1.10;99.90